createdAt,value
2022-10-31T00:01:16.086Z,8.76
2022-10-31T00:03:42.787Z,8.78
2022-10-31T00:06:09.732Z,8.76
2022-10-31T00:08:36.389Z,8.23
2022-10-31T00:11:03.329Z,8.72
2022-10-31T00:13:29.921Z,8.54
2022-10-31T00:15:56.786Z,8.70
2022-10-31T00:18:23.475Z,8.51
2022-10-31T00:20:50.060Z,8.65
2022-10-31T00:23:16.660Z,8.47
2022-10-31T00:25:43.285Z,9.13
2022-10-31T00:28:12.163Z,9.10
2022-10-31T00:30:38.850Z,9.07
2022-10-31T00:33:05.458Z,9.29
2022-10-31T00:35:32.921Z,9.54
2022-10-31T00:37:59.590Z,9.49
2022-10-31T00:40:26.307Z,9.40
2022-10-31T00:42:53.041Z,8.97
2022-10-31T00:45:19.791Z,8.63
2022-10-31T00:47:46.376Z,8.86
2022-10-31T00:50:12.980Z,8.81
2022-10-31T00:52:39.565Z,8.61
2022-10-31T00:55:06.275Z,8.78
2022-10-31T00:57:32.869Z,8.85
2022-10-31T00:59:59.463Z,8.33
2022-10-31T01:02:26.154Z,8.54
2022-10-31T01:04:52.871Z,8.83
2022-10-31T01:07:19.550Z,9.08
2022-10-31T01:09:46.138Z,9.50
2022-10-31T01:12:12.751Z,9.12
2022-10-31T01:14:39.415Z,9.66
2022-10-31T01:17:06.002Z,9.21
2022-10-31T01:19:32.602Z,9.44
2022-10-31T01:21:59.210Z,9.55
2022-10-31T01:24:25.805Z,9.45
2022-10-31T01:26:52.415Z,9.50
2022-10-31T01:29:19.014Z,9.65
2022-10-31T01:31:45.601Z,9.70
2022-10-31T01:34:16.279Z,9.55
2022-10-31T01:36:45.065Z,9.48
2022-10-31T01:39:14.316Z,9.84
2022-10-31T01:41:44.340Z,10.30
2022-10-31T01:44:17.030Z,9.67
2022-10-31T01:46:56.793Z,9.74
2022-10-31T01:49:41.700Z,9.59
2022-10-31T01:52:32.751Z,9.85
2022-10-31T01:55:08.084Z,9.93
2022-10-31T01:57:38.915Z,9.97
2022-10-31T02:00:10.429Z,9.56
2022-10-31T02:02:37.702Z,9.78
2022-10-31T02:05:10.297Z,9.64
2022-10-31T02:07:58.115Z,9.65
2022-10-31T02:10:25.994Z,9.97
2022-10-31T02:12:58.172Z,9.62
2022-10-31T02:15:25.488Z,9.52
2022-10-31T02:17:53.153Z,9.92
2022-10-31T02:20:24.186Z,10.42
2022-10-31T02:23:39.566Z,10.26
2022-10-31T02:26:20.568Z,10.35
2022-10-31T02:29:11.783Z,9.86
2022-10-31T02:31:49.119Z,10.16
2022-10-31T02:34:52.237Z,10.19
2022-10-31T02:37:32.926Z,10.29
2022-10-31T02:40:18.573Z,10.59
2022-10-31T02:42:57.719Z,10.73
2022-10-31T02:45:33.282Z,10.82
2022-10-31T02:48:09.180Z,10.55
2022-10-31T02:50:43.186Z,11.46
2022-10-31T02:53:09.780Z,11.31
2022-10-31T02:55:36.306Z,12.01
2022-10-31T02:58:09.301Z,11.60
2022-10-31T03:00:48.419Z,10.44
2022-10-31T03:03:46.602Z,10.05
2022-10-31T03:06:48.469Z,9.94
2022-10-31T03:09:39.874Z,10.12
2022-10-31T03:12:26.066Z,9.94
2022-10-31T03:15:06.892Z,9.52
2022-10-31T03:18:09.792Z,9.78
2022-10-31T03:20:46.062Z,10.03
2022-10-31T03:23:17.024Z,9.74
2022-10-31T03:25:45.873Z,9.78
2022-10-31T03:30:53.328Z,9.82
2022-10-31T03:33:27.973Z,10.44
2022-10-31T03:35:59.461Z,10.05
2022-10-31T03:38:27.469Z,9.86
2022-10-31T03:40:59.539Z,9.82
2022-10-31T03:43:33.150Z,10.15
2022-10-31T03:46:00.475Z,9.75
2022-10-31T03:48:27.492Z,10.08
2022-10-31T03:50:54.051Z,9.97
2022-10-31T03:53:31.565Z,9.68
2022-10-31T03:56:36.351Z,9.56
2022-10-31T03:59:10.601Z,9.29
2022-10-31T04:01:46.133Z,9.58
2022-10-31T04:04:14.453Z,9.58
2022-10-31T04:06:47.039Z,10.25
2022-10-31T04:09:16.787Z,10.19
2022-10-31T04:11:52.673Z,10.49
2022-10-31T04:14:43.597Z,10.38
2022-10-31T04:17:15.673Z,9.84
2022-10-31T04:19:43.683Z,10.17
2022-10-31T04:22:10.493Z,10.39
2022-10-31T04:24:41.166Z,10.55
2022-10-31T04:27:08.277Z,10.34
2022-10-31T04:29:34.915Z,10.80
2022-10-31T04:32:01.553Z,10.34
2022-10-31T04:34:28.149Z,10.39
2022-10-31T04:36:54.775Z,10.29
2022-10-31T04:39:24.300Z,10.72
2022-10-31T04:41:53.479Z,10.32
2022-10-31T04:44:20.119Z,9.94
2022-10-31T04:46:46.697Z,10.04
2022-10-31T04:49:14.016Z,10.54
2022-10-31T04:51:40.608Z,10.24
2022-10-31T04:54:07.434Z,10.52
2022-10-31T04:56:34.153Z,10.54
2022-10-31T04:59:00.836Z,11.50
2022-10-31T05:01:27.521Z,11.83
2022-10-31T05:03:54.211Z,11.46
2022-10-31T05:06:20.855Z,11.53
2022-10-31T05:08:47.417Z,11.30
2022-10-31T05:11:14.008Z,11.79
2022-10-31T05:13:40.602Z,12.14
2022-10-31T05:16:07.461Z,12.90
2022-10-31T05:18:34.062Z,11.94
2022-10-31T05:21:00.704Z,11.45
2022-10-31T05:23:27.294Z,11.72
2022-10-31T05:25:53.946Z,12.08
2022-10-31T05:28:20.545Z,11.57
2022-10-31T05:30:47.151Z,11.99
2022-10-31T05:33:13.755Z,12.20
2022-10-31T05:35:40.471Z,12.48
2022-10-31T05:38:07.169Z,11.70
2022-10-31T05:40:33.789Z,11.60
2022-10-31T05:43:00.671Z,11.60
2022-10-31T05:45:27.438Z,11.79
2022-10-31T05:48:00.060Z,12.18
2022-10-31T05:50:29.809Z,12.22
2022-10-31T05:53:06.149Z,11.62
2022-10-31T05:55:33.377Z,11.76
2022-10-31T05:58:00.322Z,10.97
2022-10-31T06:00:28.641Z,11.06
2022-10-31T06:03:00.214Z,10.97
2022-10-31T06:05:27.229Z,10.84
2022-10-31T06:07:53.896Z,10.85
2022-10-31T06:10:20.516Z,10.88
2022-10-31T06:12:47.708Z,10.87
2022-10-31T06:15:16.117Z,11.89
2022-10-31T06:17:44.526Z,11.75
2022-10-31T06:20:12.590Z,12.29
2022-10-31T06:22:39.203Z,12.53
2022-10-31T06:25:11.633Z,12.10
2022-10-31T06:27:38.388Z,12.21
2022-10-31T06:30:05.486Z,12.65
2022-10-31T06:32:32.072Z,13.41
2022-10-31T06:34:58.659Z,13.52
2022-10-31T06:37:25.428Z,14.16
2022-10-31T06:39:52.031Z,15.32
2022-10-31T06:42:18.687Z,14.93
2022-10-31T06:44:45.351Z,14.29
2022-10-31T06:47:11.987Z,14.72
2022-10-31T06:49:38.678Z,14.75
2022-10-31T06:52:06.296Z,13.71
2022-10-31T06:54:32.939Z,14.43
2022-10-31T06:56:59.587Z,13.76
2022-10-31T06:59:26.260Z,14.28
2022-10-31T07:01:53.151Z,14.21
2022-10-31T07:04:19.895Z,13.98
2022-10-31T07:06:50.966Z,15.25
2022-10-31T07:09:18.502Z,13.81
2022-10-31T07:11:45.103Z,13.69
2022-10-31T07:14:11.707Z,13.18
2022-10-31T07:16:39.452Z,12.75
2022-10-31T07:19:06.082Z,14.23
2022-10-31T07:21:32.717Z,15.70
2022-10-31T07:23:59.305Z,16.25
2022-10-31T07:26:25.903Z,16.37
2022-10-31T07:28:52.477Z,14.99
2022-10-31T07:31:19.041Z,15.98
2022-10-31T07:33:45.697Z,15.71
2022-10-31T07:36:12.285Z,15.51
2022-10-31T07:38:38.854Z,15.77
2022-10-31T07:41:05.559Z,16.00
2022-10-31T07:43:32.158Z,15.82
2022-10-31T07:45:58.745Z,15.88
2022-10-31T07:48:25.376Z,16.14
2022-10-31T07:50:51.999Z,17.77
2022-10-31T07:53:18.600Z,17.79
2022-10-31T07:55:45.222Z,17.74
2022-10-31T07:58:17.612Z,18.11
2022-10-31T08:00:46.054Z,17.61
2022-10-31T08:03:16.042Z,17.72
2022-10-31T08:05:43.099Z,18.21
2022-10-31T08:08:09.860Z,17.86
2022-10-31T08:10:37.007Z,17.69
2022-10-31T08:13:09.814Z,17.62
2022-10-31T08:15:37.409Z,17.21
2022-10-31T08:18:04.812Z,16.75
2022-10-31T08:20:31.497Z,17.06
2022-10-31T08:23:00.489Z,16.32
2022-10-31T08:25:32.284Z,16.06
2022-10-31T08:28:03.152Z,16.21
2022-10-31T08:30:32.844Z,15.78
2022-10-31T08:33:00.259Z,16.53
2022-10-31T08:35:26.864Z,15.37
2022-10-31T08:37:54.947Z,15.96
2022-10-31T08:40:21.663Z,15.76
2022-10-31T08:42:48.300Z,15.31
2022-10-31T08:45:14.910Z,15.19
2022-10-31T08:47:41.621Z,15.13
2022-10-31T08:50:08.591Z,14.82
2022-10-31T08:52:59.260Z,14.77
2022-10-31T08:55:22.001Z,14.51
2022-10-31T08:57:48.737Z,14.75
2022-10-31T09:00:15.483Z,14.17
2022-10-31T09:02:42.098Z,13.82
2022-10-31T09:05:09.012Z,14.29
2022-10-31T09:07:36.430Z,14.59
2022-10-31T09:10:03.059Z,14.96
2022-10-31T09:12:29.769Z,15.25
2022-10-31T09:14:56.360Z,15.77
2022-10-31T09:17:22.968Z,15.84
2022-10-31T09:19:49.579Z,16.39
2022-10-31T09:22:16.185Z,16.11
2022-10-31T09:24:42.816Z,15.71
2022-10-31T09:27:09.410Z,15.96
2022-10-31T09:29:36.003Z,15.78
2022-10-31T09:32:02.620Z,15.90
2022-10-31T09:34:29.202Z,15.73
2022-10-31T09:36:55.800Z,15.63
2022-10-31T09:39:22.394Z,15.38
2022-10-31T09:42:07.169Z,15.28
2022-10-31T09:44:41.935Z,14.97
2022-10-31T09:47:27.258Z,15.28
2022-10-31T09:49:59.746Z,15.72
2022-10-31T09:52:37.641Z,15.33
2022-10-31T09:55:16.688Z,15.01
2022-10-31T09:57:45.105Z,16.29
2022-10-31T10:00:23.192Z,16.31
2022-10-31T10:03:25.270Z,16.43
2022-10-31T10:06:06.950Z,16.91
2022-10-31T10:08:36.495Z,16.74
2022-10-31T10:11:36.871Z,16.69
2022-10-31T10:14:25.318Z,16.72
2022-10-31T10:17:29.294Z,15.93
2022-10-31T10:20:33.358Z,16.60
2022-10-31T10:23:34.989Z,16.15
2022-10-31T10:26:23.097Z,16.62
2022-10-31T10:29:02.078Z,15.89
2022-10-31T10:31:38.569Z,15.96
2022-10-31T10:34:14.190Z,16.03
2022-10-31T10:37:02.660Z,16.02
2022-10-31T10:39:46.190Z,16.18
2022-10-31T10:42:15.663Z,16.71
2022-10-31T10:44:48.138Z,16.42
2022-10-31T10:47:14.782Z,16.94
2022-10-31T10:49:47.309Z,16.59
2022-10-31T10:52:45.944Z,16.78
2022-10-31T10:55:29.206Z,15.86
2022-10-31T10:57:55.772Z,15.67
2022-10-31T11:00:23.988Z,15.94
2022-10-31T11:02:50.829Z,16.23
2022-10-31T11:05:29.646Z,16.11
2022-10-31T11:07:56.386Z,16.17
2022-10-31T11:10:23.331Z,16.60
2022-10-31T11:13:15.571Z,16.93
2022-10-31T11:16:03.805Z,16.98
2022-10-31T11:18:35.365Z,16.45
2022-10-31T11:21:04.254Z,16.25
2022-10-31T11:23:32.123Z,16.48
2022-10-31T11:26:07.124Z,16.18
2022-10-31T11:28:34.929Z,16.24
2022-10-31T11:31:13.249Z,16.54
2022-10-31T11:33:48.978Z,15.92
2022-10-31T11:36:29.070Z,15.91
2022-10-31T11:38:56.549Z,15.71
2022-10-31T11:41:31.142Z,15.28
2022-10-31T11:44:05.700Z,15.58
2022-10-31T11:46:40.461Z,15.36
2022-10-31T11:49:35.160Z,15.27
2022-10-31T11:52:24.190Z,15.98
2022-10-31T11:55:03.323Z,15.37
2022-10-31T11:57:33.383Z,14.92
2022-10-31T12:00:03.638Z,15.07
2022-10-31T12:02:30.393Z,14.83
2022-10-31T12:05:24.424Z,15.10
2022-10-31T12:07:51.367Z,14.76
2022-10-31T12:10:25.658Z,14.89
2022-10-31T12:13:09.336Z,15.49
2022-10-31T12:15:40.895Z,16.22
2022-10-31T12:18:22.731Z,16.36
2022-10-31T12:21:18.610Z,16.74
2022-10-31T12:24:02.726Z,16.79
2022-10-31T12:26:40.558Z,16.84
2022-10-31T12:29:25.987Z,16.17
2022-10-31T12:32:17.150Z,16.39
2022-10-31T12:34:49.334Z,15.70
2022-10-31T12:37:58.204Z,15.84
2022-10-31T12:40:35.572Z,16.83
2022-10-31T12:43:02.569Z,15.91
2022-10-31T12:45:37.399Z,15.71
2022-10-31T12:48:22.770Z,15.90
2022-10-31T12:51:20.542Z,16.51
2022-10-31T12:54:06.351Z,15.94
2022-10-31T12:57:06.067Z,16.37
2022-10-31T12:59:49.930Z,15.80
2022-10-31T13:02:27.648Z,15.47
2022-10-31T13:05:04.073Z,15.40
2022-10-31T13:08:02.815Z,15.51
2022-10-31T13:10:35.498Z,14.71
2022-10-31T13:13:13.867Z,14.41
2022-10-31T13:15:51.517Z,13.32
2022-10-31T13:18:49.840Z,13.59
2022-10-31T13:21:24.221Z,12.90
2022-10-31T13:23:52.513Z,11.84
2022-10-31T13:26:35.025Z,10.13
2022-10-31T13:29:14.089Z,11.03
2022-10-31T13:31:42.220Z,11.00
2022-10-31T13:34:20.065Z,9.81
2022-10-31T13:37:13.737Z,9.51
2022-10-31T13:40:17.921Z,7.84
2022-10-31T13:42:53.393Z,7.86
2022-10-31T13:45:23.321Z,7.39
2022-10-31T13:48:15.961Z,7.22
2022-10-31T13:50:55.276Z,6.89
2022-10-31T13:53:24.167Z,7.11
2022-10-31T13:56:05.857Z,6.80
2022-10-31T13:58:35.893Z,7.15
2022-10-31T14:01:20.685Z,7.04
2022-10-31T14:04:11.165Z,7.90
2022-10-31T14:07:05.935Z,7.66
2022-10-31T14:10:06.243Z,7.61
2022-10-31T14:12:40.406Z,7.06
2022-10-31T14:15:26.428Z,7.17
2022-10-31T14:17:52.958Z,7.39
2022-10-31T14:20:19.530Z,7.12
2022-10-31T14:22:46.382Z,7.09
2022-10-31T14:25:35.004Z,7.31
2022-10-31T14:28:21.547Z,7.26
2022-10-31T14:30:57.464Z,7.17
2022-10-31T14:33:28.637Z,7.41
2022-10-31T14:36:07.383Z,7.20
2022-10-31T14:38:52.640Z,6.92
2022-10-31T14:41:54.804Z,6.89
2022-10-31T14:44:53.613Z,7.09
2022-10-31T14:47:32.754Z,7.26
2022-10-31T14:50:10.025Z,7.74
2022-10-31T14:52:39.505Z,7.90
2022-10-31T14:55:13.190Z,7.55
2022-10-31T14:58:05.597Z,7.89
2022-10-31T15:00:35.938Z,7.67
2022-10-31T15:03:19.331Z,8.19
2022-10-31T15:06:00.300Z,7.60
2022-10-31T15:08:35.156Z,7.82
2022-10-31T15:11:12.717Z,7.38
2022-10-31T15:13:48.717Z,7.73
2022-10-31T15:19:08.830Z,7.49
2022-10-31T15:21:44.378Z,7.26
2022-10-31T15:24:15.171Z,7.00
2022-10-31T15:26:47.169Z,7.30
2022-10-31T15:29:19.402Z,8.03
2022-10-31T15:32:01.675Z,7.65
2022-10-31T15:34:40.473Z,7.29
2022-10-31T15:37:18.450Z,7.15
2022-10-31T15:39:46.963Z,6.94
2022-10-31T15:42:30.131Z,7.25
2022-10-31T15:45:11.395Z,6.88
2022-10-31T15:47:38.681Z,7.25
2022-10-31T15:50:21.602Z,6.84
2022-10-31T15:52:49.523Z,7.48
2022-10-31T15:55:26.292Z,7.12
2022-10-31T15:57:59.187Z,7.29
2022-10-31T16:00:27.420Z,7.28
2022-10-31T16:03:13.389Z,6.90
2022-10-31T16:05:45.342Z,6.99
2022-10-31T16:08:46.743Z,7.70
2022-10-31T16:11:13.302Z,9.18
2022-10-31T16:13:58.934Z,10.28
2022-10-31T16:16:35.290Z,11.01
2022-10-31T16:19:06.170Z,11.33
2022-10-31T16:21:39.247Z,12.02
2022-10-31T16:24:38.378Z,11.41
2022-10-31T16:27:16.694Z,10.69
2022-10-31T16:29:45.775Z,9.93
2022-10-31T16:32:35.866Z,10.28
2022-10-31T16:35:19.441Z,9.63
2022-10-31T16:37:46.119Z,9.13
2022-10-31T16:40:14.893Z,8.95
2022-10-31T16:42:42.738Z,9.27
2022-10-31T16:45:17.562Z,9.07
2022-10-31T16:47:44.191Z,9.25
2022-10-31T16:50:24.228Z,9.07
2022-10-31T16:53:12.745Z,9.36
2022-10-31T16:55:47.492Z,9.01
2022-10-31T16:58:18.936Z,9.19
2022-10-31T17:00:46.214Z,8.88
2022-10-31T17:03:12.934Z,8.83
2022-10-31T17:05:39.589Z,9.03
2022-10-31T17:08:06.236Z,8.63
2022-10-31T17:10:33.657Z,8.75
2022-10-31T17:13:02.615Z,9.00
2022-10-31T17:15:38.741Z,8.75
2022-10-31T17:18:05.375Z,8.73
2022-10-31T17:20:32.199Z,8.64
2022-10-31T17:23:00.389Z,9.65
2022-10-31T17:25:30.615Z,9.44
2022-10-31T17:27:58.268Z,8.65
2022-10-31T17:30:25.454Z,8.66
2022-10-31T17:32:52.563Z,8.42
2022-10-31T17:35:21.001Z,8.84
2022-10-31T17:37:48.458Z,9.54
2022-10-31T17:40:18.710Z,9.19
2022-10-31T17:42:53.123Z,8.97
2022-10-31T17:45:21.332Z,10.81
2022-10-31T17:47:49.457Z,10.22
2022-10-31T17:50:18.197Z,8.49
2022-10-31T17:52:44.912Z,8.37
2022-10-31T17:55:14.164Z,8.29
2022-10-31T17:57:42.618Z,8.46
2022-10-31T18:00:14.626Z,8.98
2022-10-31T18:02:41.464Z,8.78
2022-10-31T18:05:11.172Z,9.21
2022-10-31T18:07:38.130Z,8.93
2022-10-31T18:10:06.037Z,8.56
2022-10-31T18:12:34.997Z,9.38
2022-10-31T18:15:01.739Z,8.91
2022-10-31T18:17:28.422Z,9.08
2022-10-31T18:19:55.261Z,9.47
2022-10-31T18:22:22.020Z,10.24
2022-10-31T18:24:48.606Z,10.32
2022-10-31T18:27:15.464Z,9.67
2022-10-31T18:29:43.194Z,9.39
2022-10-31T18:32:09.895Z,9.07
2022-10-31T18:34:36.572Z,9.66
2022-10-31T18:37:03.681Z,9.66
2022-10-31T18:39:30.360Z,9.66
2022-10-31T18:41:57.233Z,9.80
2022-10-31T18:44:23.998Z,9.45
2022-10-31T18:46:50.930Z,9.54
2022-10-31T18:49:17.902Z,9.62
2022-10-31T18:51:44.505Z,10.01
2022-10-31T18:54:11.128Z,10.05
2022-10-31T18:56:37.722Z,10.57
2022-10-31T18:59:04.332Z,11.24
2022-10-31T19:01:31.405Z,10.96
2022-10-31T19:03:59.129Z,11.41
2022-10-31T19:06:27.374Z,10.47
2022-10-31T19:09:02.675Z,10.50
2022-10-31T19:11:33.161Z,10.07
2022-10-31T19:14:01.335Z,9.95
2022-10-31T19:16:28.562Z,9.87
2022-10-31T19:18:57.340Z,10.59
2022-10-31T19:21:24.488Z,11.23
2022-10-31T19:23:53.323Z,10.73
2022-10-31T19:26:20.629Z,10.55
2022-10-31T19:28:47.561Z,9.62
2022-10-31T19:31:14.247Z,9.69
2022-10-31T19:33:40.932Z,10.99
2022-10-31T19:36:11.045Z,12.57
2022-10-31T19:38:40.542Z,12.15
2022-10-31T19:41:10.725Z,9.57
2022-10-31T19:43:37.405Z,9.86
2022-10-31T19:46:05.156Z,14.15
2022-10-31T19:48:35.451Z,12.64
2022-10-31T19:51:04.750Z,12.78
2022-10-31T19:53:31.648Z,13.38
2022-10-31T19:55:59.332Z,13.35
2022-10-31T19:58:27.381Z,12.79
2022-10-31T20:00:54.731Z,13.49
2022-10-31T20:03:22.672Z,15.30
2022-10-31T20:05:50.570Z,12.12
2022-10-31T20:08:21.620Z,12.30
2022-10-31T20:11:00.290Z,12.35
2022-10-31T20:13:28.791Z,12.48
2022-10-31T20:16:00.198Z,12.29
2022-10-31T20:18:27.152Z,13.71
2022-10-31T20:20:54.025Z,13.02
2022-10-31T20:23:20.607Z,11.31
2022-10-31T20:25:48.938Z,10.97
2022-10-31T20:28:16.229Z,10.57
2022-10-31T20:30:43.642Z,11.65
2022-10-31T20:33:10.515Z,11.09
2022-10-31T20:35:38.357Z,10.78
2022-10-31T20:38:05.697Z,11.33
2022-10-31T20:40:32.646Z,12.80
2022-10-31T20:43:00.460Z,12.53
2022-10-31T20:45:27.121Z,12.15
2022-10-31T20:47:54.867Z,11.43
2022-10-31T20:50:21.950Z,11.33
2022-10-31T20:52:49.052Z,11.15
2022-10-31T20:55:16.280Z,11.36
2022-10-31T20:57:42.898Z,10.51
2022-10-31T21:00:10.673Z,11.13
2022-10-31T21:02:40.053Z,10.71
2022-10-31T21:05:07.632Z,10.93
2022-10-31T21:07:34.267Z,11.74
2022-10-31T21:10:00.904Z,11.46
2022-10-31T21:12:27.543Z,10.62
2022-10-31T21:14:54.214Z,10.20
2022-10-31T21:17:20.786Z,9.47
2022-10-31T21:19:47.666Z,9.60
2022-10-31T21:22:14.290Z,9.74
2022-10-31T21:24:40.932Z,9.55
2022-10-31T21:27:09.989Z,9.72
2022-10-31T21:29:39.117Z,9.45
2022-10-31T21:32:05.788Z,9.19
2022-10-31T21:34:32.437Z,9.09
2022-10-31T21:36:59.081Z,8.82
2022-10-31T21:39:25.677Z,9.15
2022-10-31T21:41:52.249Z,8.93
2022-10-31T21:44:18.971Z,8.99
2022-10-31T21:46:45.623Z,9.21
2022-10-31T21:49:12.244Z,8.78
2022-10-31T21:51:38.816Z,8.20
2022-10-31T21:54:05.748Z,7.95
2022-10-31T21:56:33.049Z,8.42
2022-10-31T21:59:00.145Z,8.17
2022-10-31T22:01:29.060Z,8.52
2022-10-31T22:03:55.870Z,8.21
2022-10-31T22:06:23.397Z,7.91
2022-10-31T22:08:49.968Z,7.90
2022-10-31T22:11:18.315Z,8.08
2022-10-31T22:13:47.176Z,8.69
2022-10-31T22:16:19.260Z,7.99
2022-10-31T22:18:45.996Z,8.61
2022-10-31T22:21:15.825Z,7.60
2022-10-31T22:23:43.620Z,7.46
2022-10-31T22:26:15.649Z,7.70
2022-10-31T22:28:44.332Z,7.27
2022-10-31T22:33:48.104Z,7.08
2022-10-31T22:36:17.489Z,7.38
2022-10-31T22:38:45.159Z,7.36
2022-10-31T22:41:15.498Z,6.83
2022-10-31T22:43:42.447Z,7.16
2022-10-31T22:46:13.925Z,7.32
2022-10-31T22:48:43.762Z,6.98
2022-10-31T22:51:20.630Z,7.05
2022-10-31T22:53:48.275Z,7.02
2022-10-31T22:56:19.960Z,7.49
2022-10-31T22:58:47.778Z,8.32
2022-10-31T23:01:20.158Z,9.93
2022-10-31T23:03:47.105Z,9.53
2022-10-31T23:06:20.036Z,9.15
2022-10-31T23:08:47.946Z,9.41
2022-10-31T23:11:22.991Z,8.90
2022-10-31T23:13:52.149Z,8.67
2022-10-31T23:16:18.736Z,8.41
2022-10-31T23:18:50.205Z,8.68
2022-10-31T23:21:17.829Z,8.24
2022-10-31T23:23:44.416Z,8.33
2022-10-31T23:26:11.670Z,8.51
2022-10-31T23:28:38.475Z,8.60
2022-10-31T23:31:05.100Z,8.38
2022-10-31T23:33:31.723Z,8.17
2022-10-31T23:35:58.312Z,8.43
2022-10-31T23:38:24.948Z,8.47
2022-10-31T23:40:51.703Z,8.63
2022-10-31T23:43:18.286Z,8.55
2022-10-31T23:45:45.487Z,8.14
2022-10-31T23:48:12.107Z,7.77
2022-10-31T23:50:38.722Z,7.17
2022-10-31T23:53:05.410Z,7.72
2022-10-31T23:55:32.058Z,7.21
2022-10-31T23:57:59.061Z,7.13
